Santa Paula, CA

1:38 AM PST on January 21, 2017 (GMT -0800)
Hillsborough | | Change Station
Active Advisory: Small Craft Advisory Active Notice: Public Information Statement

Elev 571 ft 34.36 °N, 119.07 °W | Updated 46 seconds ago

Clear
Clear
46.9 °F
Feels Like 47 °F
N
0.0
Wind Variable Wind from West
Gusts 0.0 mph

Today
High -- | Low -- °F
--% Chance of Precip.
Yesterday
High -- | Low -- °F
Precip. -- in
Pressure 29.65 in
Visibility 10.0 miles
Clouds Clear
Windchill 47 °F
Dew Point 38 °F
Humidity 72%
Rainfall 0.00 in
Snow Depth Not available.
7:00 AM 5:15 PM
Last Quarter, 36% visible
METAR KCMA 210855Z 26008G16KT 10SM CLR 10/06 A2962 RMK AO2 SLP038 T01000061 53011
Pressure 29.65 in
Visibility 10.0 miles
Clouds Clear
Windchill 47 °F
Dew Point 38 °F
Humidity 72%
Rainfall 0.00 in
Snow Depth Not available.
7:00 AM 5:15 PM
Last Quarter, 36% visible
METAR KCMA 210855Z 26008G16KT 10SM CLR 10/06 A2962 RMK AO2 SLP038 T01000061 53011

Get Your Daily Forecast Email!

Thanks for signing up!

Be on the lookout for a verification email in your inbox.

You'll start receiving the daily forecast at 8 AM.

×

10-Day Weather Forecast

Almanac

Astronomy

Jan. 21, 2017 Rise Set
Actual Time
Civil Twilight
Nautical Twilight
Astronomical Twilight
Moon
Length of Visible Light
Length of Day
Tomorrow will be .
, % of the Moon is Illuminated

Today's Extremes

State Highs State Lows

Community

WunderPhotos

Upload Photos

1,962,540 photos uploaded!

WunderBlog® & News

Nearby

Air Quality

  Air Quality AQ Index Pollutant
Not available.

Snow Depth

Station Depth Elevation

Earthquake Activity

City Distance Mag. Time & Date
Minimum magnitude displayed is 2.5.

Coastal Water Temperatures

Place Temperature

Stations

Nearby Weather Stations

Station Location Temp. Windchill Dew Point Humidity Wind Precip. Elev Updated Type
                   

Watches & Warnings

Small Craft Advisory
Issued: 8:35 PM PST Jan. 20, 2017 – National Weather Service

... Small Craft Advisory in effect until 3 am PST Saturday...
... Gale Warning is cancelled...

The National Weather Service in Los Angeles/Oxnard has issued a
Small Craft Advisory... which is in effect until 3 am PST
Saturday. The Gale Warning has been cancelled.

See the coastal waters forecast (cwflox) for more details.

Precautionary/preparedness actions...

A Small Craft Advisory means that hazardous sea conditions will
exist for small craft. Inexperienced mariners... especially those
operating smaller vessels should avoid navigating in these
conditions.